createdAt,value
2024-02-03T00:00:16.490Z,0.73
2024-02-03T00:02:43.524Z,1.05
2024-02-03T00:05:10.534Z,0.73
2024-02-03T00:07:37.585Z,0.88
2024-02-03T00:10:05.353Z,1.15
2024-02-03T00:12:32.642Z,1.50
2024-02-03T00:14:59.913Z,1.35
2024-02-03T00:17:27.266Z,1.23
2024-02-03T00:19:54.660Z,1.20
2024-02-03T00:22:21.988Z,0.70
2024-02-03T00:24:49.836Z,1.50
2024-02-03T00:27:17.117Z,1.38
2024-02-03T00:29:44.424Z,1.42
2024-02-03T00:32:11.717Z,0.30
2024-02-03T00:34:39.433Z,1.17
2024-02-03T00:37:06.661Z,1.98
2024-02-03T00:39:33.765Z,0.80
2024-02-03T00:42:00.834Z,0.93
2024-02-03T00:44:28.035Z,1.38
2024-02-03T00:46:55.173Z,1.75
2024-02-03T00:49:22.278Z,0.80
2024-02-03T00:51:49.411Z,1.25
2024-02-03T00:54:16.481Z,1.00
2024-02-03T00:56:43.509Z,0.73
2024-02-03T00:59:11.752Z,2.80
2024-02-03T01:01:38.791Z,1.67
2024-02-03T01:04:05.941Z,2.42
2024-02-03T01:06:33.082Z,2.15
2024-02-03T01:09:00.446Z,1.30
2024-02-03T01:11:28.937Z,1.40
2024-02-03T01:13:56.191Z,1.10
2024-02-03T01:16:23.488Z,1.33
2024-02-03T01:18:50.744Z,1.20
2024-02-03T01:21:18.917Z,1.00
2024-02-03T01:23:45.969Z,1.25
2024-02-03T01:26:13.044Z,1.95
2024-02-03T01:28:40.070Z,1.48
2024-02-03T01:31:07.074Z,0.75
2024-02-03T01:33:34.239Z,0.68
2024-02-03T01:36:01.342Z,1.60
2024-02-03T01:38:28.359Z,1.20
2024-02-03T01:40:55.373Z,1.50
2024-02-03T01:43:22.823Z,1.40
2024-02-03T01:45:50.179Z,1.05
2024-02-03T01:48:17.498Z,1.00
2024-02-03T01:50:50.335Z,1.58
2024-02-03T01:53:21.336Z,1.48
2024-02-03T01:55:51.415Z,1.25
2024-02-03T01:58:18.951Z,1.38
2024-02-03T02:00:46.941Z,0.82
2024-02-03T02:03:15.918Z,1.98
2024-02-03T02:05:43.461Z,1.35
2024-02-03T02:08:10.487Z,1.58
2024-02-03T02:10:37.753Z,1.17
2024-02-03T02:13:05.395Z,1.00
2024-02-03T02:15:32.833Z,1.08
2024-02-03T02:18:00.753Z,1.38
2024-02-03T02:20:28.550Z,1.42
2024-02-03T02:22:55.634Z,1.05
2024-02-03T02:25:23.049Z,1.95
2024-02-03T02:27:54.227Z,1.30
2024-02-03T02:30:22.085Z,1.08
2024-02-03T02:32:49.458Z,0.85
2024-02-03T02:35:16.727Z,1.17
2024-02-03T02:37:43.881Z,1.17
2024-02-03T02:40:12.741Z,2.75
2024-02-03T02:42:40.145Z,1.70
2024-02-03T02:45:07.822Z,2.83
2024-02-03T02:47:34.943Z,1.15
2024-02-03T02:50:02.049Z,1.25
2024-02-03T02:52:29.021Z,0.80
2024-02-03T02:54:57.861Z,0.82
2024-02-03T02:57:24.960Z,1.08
2024-02-03T02:59:51.984Z,1.20
2024-02-03T03:02:19.162Z,0.88
2024-02-03T03:04:46.266Z,1.98
2024-02-03T03:07:16.398Z,1.13
2024-02-03T03:09:43.653Z,1.23
2024-02-03T03:12:11.724Z,1.60
2024-02-03T03:14:39.151Z,1.55
2024-02-03T03:17:06.277Z,0.90
2024-02-03T03:19:38.320Z,1.48
2024-02-03T03:22:07.325Z,1.10
2024-02-03T03:24:34.464Z,2.40
2024-02-03T03:27:01.469Z,0.93
2024-02-03T03:29:28.396Z,1.38
2024-02-03T03:31:55.392Z,1.38
2024-02-03T03:34:22.877Z,1.60
2024-02-03T03:36:50.003Z,1.88
2024-02-03T03:39:17.188Z,1.27
2024-02-03T03:41:44.254Z,2.45
2024-02-03T03:44:11.203Z,1.15
2024-02-03T03:46:38.127Z,1.48
2024-02-03T03:49:05.223Z,1.13
2024-02-03T03:51:33.098Z,1.67
2024-02-03T03:54:01.359Z,1.80
2024-02-03T03:56:28.298Z,2.05
2024-02-03T03:58:55.427Z,2.45
2024-02-03T04:01:22.426Z,2.42
2024-02-03T04:03:49.505Z,1.63
2024-02-03T04:06:16.645Z,1.73
2024-02-03T04:08:43.638Z,1.08
2024-02-03T04:11:10.585Z,2.00
2024-02-03T04:13:40.654Z,2.70
2024-02-03T04:16:07.964Z,0.85
2024-02-03T04:18:34.991Z,2.40
2024-02-03T04:21:01.978Z,1.42
2024-02-03T04:23:28.880Z,0.90
2024-02-03T04:25:57.204Z,1.45
2024-02-03T04:28:24.375Z,0.90
2024-02-03T04:30:51.342Z,1.60
2024-02-03T04:33:18.442Z,1.42
2024-02-03T04:35:45.530Z,2.28
2024-02-03T04:38:12.744Z,1.75
2024-02-03T04:40:39.704Z,2.42
2024-02-03T04:43:06.636Z,0.93
2024-02-03T04:45:33.561Z,1.85
2024-02-03T04:48:00.609Z,1.35
2024-02-03T04:50:29.091Z,1.85
2024-02-03T04:52:56.085Z,2.28
2024-02-03T04:55:23.617Z,1.58
2024-02-03T04:57:50.747Z,1.05
2024-02-03T05:00:19.544Z,2.13
2024-02-03T05:02:47.154Z,0.63
2024-02-03T05:05:14.054Z,1.50
2024-02-03T05:07:41.010Z,1.20
2024-02-03T05:10:08.381Z,0.73
2024-02-03T05:12:35.368Z,1.25
2024-02-03T05:15:05.253Z,1.27
2024-02-03T05:17:33.426Z,1.50
2024-02-03T05:20:00.458Z,1.70
2024-02-03T05:22:27.550Z,0.80
2024-02-03T05:24:54.635Z,0.70
2024-02-03T05:27:21.664Z,1.42
2024-02-03T05:29:48.601Z,1.25
2024-02-03T05:32:15.684Z,0.43
2024-02-03T05:34:42.910Z,0.65
2024-02-03T05:37:11.370Z,0.88
2024-02-03T05:39:38.531Z,1.25
2024-02-03T05:42:05.691Z,0.40
2024-02-03T05:44:32.710Z,1.00
2024-02-03T05:46:59.657Z,0.80
2024-02-03T05:49:26.639Z,0.45
2024-02-03T05:51:53.797Z,1.52
2024-02-03T05:54:23.386Z,0.98
2024-02-03T05:56:50.474Z,1.65
2024-02-03T05:59:27.633Z,1.83
2024-02-03T06:02:02.923Z,1.52
2024-02-03T06:04:29.984Z,1.00
2024-02-03T06:06:57.092Z,0.85
2024-02-03T06:09:27.033Z,0.70
2024-02-03T06:11:54.140Z,1.33
2024-02-03T06:14:21.103Z,1.17
2024-02-03T06:16:48.360Z,2.35
2024-02-03T06:19:15.446Z,1.17
2024-02-03T06:21:42.844Z,1.10
2024-02-03T06:24:10.771Z,1.58
2024-02-03T06:26:38.192Z,1.25
2024-02-03T06:29:07.137Z,1.75
2024-02-03T06:31:34.168Z,0.80
2024-02-03T06:34:01.187Z,1.33
2024-02-03T06:36:28.227Z,1.90
2024-02-03T06:38:55.161Z,2.05
2024-02-03T06:41:22.781Z,2.88
2024-02-03T06:43:56.990Z,2.25
2024-02-03T06:46:24.389Z,1.48
2024-02-03T06:48:52.465Z,1.77
2024-02-03T06:51:19.606Z,1.55
2024-02-03T06:53:46.490Z,1.17
2024-02-03T06:56:13.460Z,1.38
2024-02-03T06:58:40.419Z,2.00
2024-02-03T07:01:07.688Z,1.42
2024-02-03T07:03:34.676Z,1.00
2024-02-03T07:06:01.696Z,2.38
2024-02-03T07:08:28.779Z,1.38
2024-02-03T07:10:55.737Z,2.50
2024-02-03T07:13:23.724Z,1.05
2024-02-03T07:15:51.722Z,0.50
2024-02-03T07:18:19.992Z,0.40
2024-02-03T07:20:47.095Z,1.88
2024-02-03T07:23:14.096Z,0.57
2024-02-03T07:25:40.988Z,1.23
2024-02-03T07:28:07.939Z,1.10
2024-02-03T07:30:35.362Z,1.23
2024-02-03T07:33:03.217Z,0.85
2024-02-03T07:35:31.434Z,0.80
2024-02-03T07:37:58.553Z,0.90
2024-02-03T07:40:25.433Z,1.23
2024-02-03T07:42:52.534Z,1.00
2024-02-03T07:45:19.908Z,1.10
2024-02-03T07:47:47.013Z,1.23
2024-02-03T07:50:14.157Z,1.10
2024-02-03T07:52:41.167Z,0.75
2024-02-03T07:55:08.910Z,3.25
2024-02-03T07:57:35.942Z,1.02
2024-02-03T08:00:02.935Z,1.17
2024-02-03T08:02:31.266Z,0.77
2024-02-03T08:04:58.270Z,1.48
2024-02-03T08:07:25.216Z,1.65
2024-02-03T08:09:52.470Z,1.98
2024-02-03T08:12:19.486Z,0.80
2024-02-03T08:14:46.567Z,2.05
2024-02-03T08:17:13.633Z,1.50
2024-02-03T08:19:41.061Z,2.47
2024-02-03T08:22:08.069Z,1.75
2024-02-03T08:24:35.181Z,1.23
2024-02-03T08:27:02.209Z,1.30
2024-02-03T08:29:29.204Z,2.08
2024-02-03T08:31:56.328Z,1.08
2024-02-03T08:34:23.446Z,0.95
2024-02-03T08:36:50.571Z,0.60
2024-02-03T08:41:47.543Z,1.70
2024-02-03T08:44:14.507Z,1.60
2024-02-03T08:46:41.389Z,1.40
2024-02-03T08:49:09.848Z,2.10
2024-02-03T08:51:42.599Z,1.38
2024-02-03T08:54:09.789Z,1.15
2024-02-03T08:56:36.752Z,1.70
2024-02-03T08:59:03.741Z,1.63
2024-02-03T09:01:30.893Z,1.75
2024-02-03T09:03:57.908Z,2.17
2024-02-03T09:06:25.019Z,1.77
2024-02-03T09:08:52.572Z,1.98
2024-02-03T09:11:20.197Z,1.42
2024-02-03T09:13:47.175Z,3.95
2024-02-03T09:16:14.345Z,1.58
2024-02-03T09:18:42.052Z,0.98
2024-02-03T09:21:11.426Z,1.13
2024-02-03T09:23:41.127Z,1.33
2024-02-03T09:26:11.340Z,1.20
2024-02-03T09:28:38.323Z,1.80
2024-02-03T09:31:06.669Z,1.42
2024-02-03T09:33:34.099Z,0.82
2024-02-03T09:36:05.317Z,1.50
2024-02-03T09:38:32.468Z,1.10
2024-02-03T09:41:00.134Z,2.28
2024-02-03T09:43:27.300Z,1.30
2024-02-03T09:45:54.727Z,0.73
2024-02-03T09:48:24.208Z,1.27
2024-02-03T09:50:51.884Z,1.42
2024-02-03T09:53:18.905Z,1.02
2024-02-03T09:55:45.947Z,1.08
2024-02-03T09:58:12.855Z,0.98
2024-02-03T10:00:39.902Z,1.02
2024-02-03T10:03:16.525Z,1.05
2024-02-03T10:05:43.550Z,1.38
2024-02-03T10:08:11.390Z,0.40
2024-02-03T10:13:11.731Z,1.88
2024-02-03T10:15:39.476Z,0.75
2024-02-03T10:18:08.768Z,0.80
2024-02-03T10:20:36.074Z,0.90
2024-02-03T10:23:03.878Z,1.27
2024-02-03T10:25:32.706Z,0.77
2024-02-03T10:28:04.924Z,0.98
2024-02-03T10:30:33.528Z,1.25
2024-02-03T10:33:01.643Z,0.55
2024-02-03T10:35:33.948Z,1.05
2024-02-03T10:38:01.564Z,0.88
2024-02-03T10:40:33.020Z,0.90
2024-02-03T10:43:02.771Z,0.60
2024-02-03T10:45:34.233Z,2.58
2024-02-03T10:48:04.864Z,1.42
2024-02-03T10:50:36.973Z,0.80
2024-02-03T10:53:08.479Z,0.70
2024-02-03T10:58:06.299Z,1.08
2024-02-03T11:00:33.427Z,0.93
2024-02-03T11:03:01.848Z,0.98
2024-02-03T11:05:29.743Z,1.42
2024-02-03T11:08:06.647Z,0.82
2024-02-03T11:10:37.126Z,0.93
2024-02-03T11:13:22.634Z,1.42
2024-02-03T11:15:59.935Z,1.23
2024-02-03T11:18:28.535Z,0.80
2024-02-03T11:21:09.080Z,1.13
2024-02-03T11:23:36.775Z,1.02
2024-02-03T11:26:03.830Z,1.48
2024-02-03T11:28:34.731Z,0.88
2024-02-03T11:31:08.043Z,1.10
2024-02-03T11:33:42.795Z,0.93
2024-02-03T11:36:11.488Z,1.15
2024-02-03T11:38:48.377Z,1.02
2024-02-03T11:41:16.909Z,0.73
2024-02-03T11:43:44.344Z,1.48
2024-02-03T11:46:12.138Z,1.45
2024-02-03T11:48:40.516Z,1.05
2024-02-03T11:51:11.470Z,1.33
2024-02-03T11:53:38.650Z,2.03
2024-02-03T11:56:06.844Z,1.10
2024-02-03T11:58:33.825Z,0.60
2024-02-03T12:01:06.740Z,0.50
2024-02-03T12:03:34.238Z,0.73
2024-02-03T12:06:01.409Z,0.95
2024-02-03T12:08:28.369Z,1.00
2024-02-03T12:10:55.391Z,0.57
2024-02-03T12:13:23.208Z,1.00
2024-02-03T12:15:52.901Z,0.60
2024-02-03T12:18:21.228Z,0.98
2024-02-03T12:20:48.452Z,0.80
2024-02-03T12:23:19.726Z,1.45
2024-02-03T12:25:50.115Z,0.80
2024-02-03T12:28:19.206Z,1.40
2024-02-03T12:30:55.712Z,0.90
2024-02-03T12:33:23.120Z,1.17
2024-02-03T12:35:51.268Z,1.05
2024-02-03T12:38:19.197Z,1.40
2024-02-03T12:40:46.388Z,0.88
2024-02-03T12:43:13.305Z,0.73
2024-02-03T12:45:40.590Z,0.88
2024-02-03T12:48:07.754Z,1.08
2024-02-03T12:50:35.024Z,0.90
2024-02-03T12:53:02.114Z,0.98
2024-02-03T12:55:29.287Z,1.08
2024-02-03T12:57:59.540Z,0.88
2024-02-03T13:00:26.947Z,0.80
2024-02-03T13:02:56.874Z,0.98
2024-02-03T13:05:24.480Z,0.60
2024-02-03T13:07:53.044Z,1.02
2024-02-03T13:10:20.225Z,1.02
2024-02-03T13:12:48.184Z,1.10
2024-02-03T13:15:15.757Z,1.40
2024-02-03T13:17:44.179Z,1.25
2024-02-03T13:20:12.077Z,0.60
2024-02-03T13:22:39.462Z,0.80
2024-02-03T13:25:07.335Z,1.10
2024-02-03T13:27:34.658Z,0.65
2024-02-03T13:30:01.948Z,0.73
2024-02-03T13:32:29.160Z,0.68
2024-02-03T13:34:56.264Z,0.80
2024-02-03T13:37:23.515Z,1.23
2024-02-03T13:39:50.679Z,0.60
2024-02-03T13:42:17.825Z,1.23
2024-02-03T13:44:44.776Z,0.90
2024-02-03T13:47:11.751Z,0.80
2024-02-03T13:49:39.015Z,0.93
2024-02-03T13:52:06.482Z,1.60
2024-02-03T13:54:33.527Z,2.42
2024-02-03T13:57:00.468Z,0.80
2024-02-03T13:59:29.563Z,0.80
2024-02-03T14:01:56.933Z,1.10
2024-02-03T14:04:24.112Z,0.93
2024-02-03T14:06:51.187Z,1.02
2024-02-03T14:09:18.180Z,1.50
2024-02-03T14:11:53.575Z,0.82
2024-02-03T14:14:23.348Z,1.23
2024-02-03T14:16:50.702Z,0.93
2024-02-03T14:19:17.944Z,1.55
2024-02-03T14:21:45.242Z,1.20
2024-02-03T14:24:13.188Z,1.15
2024-02-03T14:26:41.996Z,1.08
2024-02-03T14:29:09.499Z,1.92
2024-02-03T14:31:36.601Z,1.05
2024-02-03T14:34:03.839Z,1.55
2024-02-03T14:36:31.674Z,1.40
2024-02-03T14:38:58.696Z,1.58
2024-02-03T14:41:31.876Z,1.63
2024-02-03T14:43:59.283Z,0.93
2024-02-03T14:46:27.769Z,1.77
2024-02-03T14:48:54.779Z,1.10
2024-02-03T14:51:21.738Z,1.85
2024-02-03T14:53:48.681Z,1.02
2024-02-03T14:56:15.652Z,1.13
2024-02-03T14:58:42.644Z,1.70
2024-02-03T15:01:09.789Z,1.25
2024-02-03T15:03:36.973Z,0.80
2024-02-03T15:06:04.544Z,1.23
2024-02-03T15:08:34.619Z,1.30
2024-02-03T15:11:01.953Z,1.00
2024-02-03T15:13:28.883Z,0.70
2024-02-03T15:15:55.943Z,0.70
2024-02-03T15:18:23.003Z,0.75
2024-02-03T15:20:50.137Z,0.85
2024-02-03T15:23:17.105Z,1.55
2024-02-03T15:25:44.078Z,0.82
2024-02-03T15:28:11.316Z,0.63
2024-02-03T15:30:38.334Z,0.85
2024-02-03T15:33:05.790Z,1.25
2024-02-03T15:35:32.912Z,0.95
2024-02-03T15:38:00.253Z,0.73
2024-02-03T15:40:27.628Z,1.42
2024-02-03T15:42:58.345Z,1.20
2024-02-03T15:45:26.296Z,1.13
2024-02-03T15:47:53.737Z,1.40
2024-02-03T15:50:20.996Z,1.83
2024-02-03T15:52:48.262Z,2.10
2024-02-03T15:55:15.699Z,1.15
2024-02-03T15:57:43.139Z,1.33
2024-02-03T16:00:11.502Z,1.65
2024-02-03T16:02:41.506Z,2.10
2024-02-03T16:05:09.886Z,0.90
2024-02-03T16:07:37.370Z,1.40
2024-02-03T16:10:05.676Z,1.80
2024-02-03T16:12:33.613Z,1.20
2024-02-03T16:15:00.878Z,1.10
2024-02-03T16:17:28.071Z,1.52
2024-02-03T16:19:55.396Z,1.50
2024-02-03T16:22:22.690Z,0.80
2024-02-03T16:24:49.976Z,1.55
2024-02-03T16:27:18.330Z,1.65
2024-02-03T16:29:45.532Z,1.85
2024-02-03T16:32:12.521Z,3.28
2024-02-03T16:34:39.769Z,1.80
2024-02-03T16:37:06.955Z,4.72
2024-02-03T16:39:34.174Z,1.60
2024-02-03T16:42:01.335Z,1.92
2024-02-03T16:44:28.500Z,1.20
2024-02-03T16:46:55.603Z,1.90
2024-02-03T16:49:22.801Z,1.00
2024-02-03T16:51:49.867Z,1.15
2024-02-03T16:54:17.068Z,1.83
2024-02-03T16:56:44.112Z,0.70
2024-02-03T16:59:11.302Z,1.35
2024-02-03T17:01:44.626Z,1.08
2024-02-03T17:04:15.103Z,1.40
2024-02-03T17:06:45.483Z,1.10
2024-02-03T17:09:15.014Z,0.82
2024-02-03T17:11:42.194Z,0.93
2024-02-03T17:14:10.286Z,0.90
2024-02-03T17:16:37.904Z,0.85
2024-02-03T17:19:07.648Z,1.75
2024-02-03T17:21:34.902Z,1.40
2024-02-03T17:24:02.360Z,1.77
2024-02-03T17:26:29.717Z,1.52
2024-02-03T17:28:57.350Z,1.20
2024-02-03T17:31:24.499Z,0.82
2024-02-03T17:33:52.034Z,2.45
2024-02-03T17:36:19.442Z,1.83
2024-02-03T17:38:46.625Z,1.08
2024-02-03T17:41:13.692Z,1.67
2024-02-03T17:43:40.799Z,0.90
2024-02-03T17:46:08.423Z,1.63
2024-02-03T17:48:37.499Z,2.33
2024-02-03T17:51:05.028Z,1.92
2024-02-03T17:53:33.290Z,1.48
2024-02-03T17:56:00.857Z,1.63
2024-02-03T17:58:27.916Z,2.33
2024-02-03T18:00:56.303Z,0.90
2024-02-03T18:03:23.989Z,2.05
2024-02-03T18:05:52.492Z,1.42
2024-02-03T18:08:23.542Z,1.38
2024-02-03T18:10:51.869Z,1.55
2024-02-03T18:13:22.005Z,0.80
2024-02-03T18:15:50.852Z,1.70
2024-02-03T18:18:24.120Z,1.38
2024-02-03T18:20:51.422Z,1.10
2024-02-03T18:23:18.684Z,2.13
2024-02-03T18:25:47.386Z,1.98
2024-02-03T18:28:17.647Z,2.13
2024-02-03T18:30:46.727Z,1.27
2024-02-03T18:33:13.958Z,2.22
2024-02-03T18:35:41.191Z,1.27
2024-02-03T18:38:08.391Z,2.00
2024-02-03T18:40:35.498Z,3.70
2024-02-03T18:43:02.677Z,3.40
2024-02-03T18:45:30.163Z,6.35
2024-02-03T18:47:58.230Z,4.47
2024-02-03T18:50:25.428Z,1.80
2024-02-03T18:52:52.358Z,2.50
2024-02-03T18:55:19.285Z,1.98
2024-02-03T18:57:46.287Z,2.53
2024-02-03T19:00:17.285Z,1.23
2024-02-03T19:02:44.256Z,2.38
2024-02-03T19:05:11.384Z,1.67
2024-02-03T19:07:38.451Z,2.25
2024-02-03T19:10:06.240Z,1.27
2024-02-03T19:12:33.280Z,1.85
2024-02-03T19:15:00.248Z,1.60
2024-02-03T19:17:27.182Z,1.70
2024-02-03T19:19:54.355Z,1.95
2024-02-03T19:22:22.021Z,1.70
2024-02-03T19:24:49.650Z,1.80
2024-02-03T19:27:16.825Z,1.10
2024-02-03T19:29:43.844Z,0.82
2024-02-03T19:32:10.862Z,1.27
2024-02-03T19:34:37.944Z,0.95
2024-02-03T19:37:05.175Z,1.60
2024-02-03T19:39:32.241Z,1.02
2024-02-03T19:41:59.190Z,1.75
2024-02-03T19:44:26.075Z,1.73
2024-02-03T19:46:53.049Z,1.20
2024-02-03T19:49:24.521Z,1.73
2024-02-03T19:51:51.720Z,1.60
2024-02-03T19:54:18.809Z,1.10
2024-02-03T19:56:45.960Z,1.60
2024-02-03T19:59:12.994Z,1.55
2024-02-03T20:01:39.974Z,1.23
2024-02-03T20:04:08.213Z,1.52
2024-02-03T20:06:35.293Z,1.65
2024-02-03T20:09:02.849Z,3.17
2024-02-03T20:11:30.061Z,4.05
2024-02-03T20:13:57.086Z,7.95
2024-02-03T20:16:24.944Z,8.98
2024-02-03T20:18:52.186Z,10.75
2024-02-03T20:21:19.220Z,9.93
2024-02-03T20:23:46.287Z,10.27
2024-02-03T20:26:14.273Z,10.85
2024-02-03T20:28:43.375Z,8.70
2024-02-03T20:31:11.665Z,3.95
2024-02-03T20:33:38.875Z,3.45
2024-02-03T20:36:09.087Z,1.63
2024-02-03T20:38:37.900Z,2.17
2024-02-03T20:41:06.010Z,6.47
2024-02-03T20:43:33.294Z,5.38
2024-02-03T20:46:00.473Z,2.13
2024-02-03T20:48:27.569Z,3.15
2024-02-03T20:50:54.862Z,4.70
2024-02-03T20:53:24.383Z,1.60
2024-02-03T20:55:51.449Z,1.52
2024-02-03T20:58:19.513Z,1.40
2024-02-03T21:00:46.668Z,1.77
2024-02-03T21:03:13.820Z,1.55
2024-02-03T21:05:41.111Z,2.05
2024-02-03T21:08:09.290Z,1.50
2024-02-03T21:10:36.689Z,1.50
2024-02-03T21:13:05.962Z,1.00
2024-02-03T21:15:33.380Z,1.25
2024-02-03T21:18:00.566Z,2.55
2024-02-03T21:20:27.846Z,1.63
2024-02-03T21:22:55.013Z,1.17
2024-02-03T21:25:24.692Z,1.33
2024-02-03T21:27:52.774Z,1.33
2024-02-03T21:30:19.882Z,1.38
2024-02-03T21:32:47.048Z,1.52
2024-02-03T21:35:14.214Z,0.57
2024-02-03T21:37:41.206Z,2.13
2024-02-03T21:40:09.076Z,1.17
2024-02-03T21:42:36.107Z,0.68
2024-02-03T21:45:03.692Z,1.00
2024-02-03T21:47:30.676Z,1.95
2024-02-03T21:49:58.350Z,1.08
2024-02-03T21:52:28.061Z,2.10
2024-02-03T21:54:55.411Z,1.40
2024-02-03T21:57:22.693Z,1.45
2024-02-03T21:59:49.783Z,1.27
2024-02-03T22:02:16.761Z,1.58
2024-02-03T22:04:44.259Z,1.90
2024-02-03T22:07:11.477Z,0.75
2024-02-03T22:09:39.583Z,1.67
2024-02-03T22:12:06.829Z,1.15
2024-02-03T22:14:34.527Z,1.00
2024-02-03T22:17:02.455Z,2.03
2024-02-03T22:19:31.884Z,1.15
2024-02-03T22:21:59.178Z,1.08
2024-02-03T22:24:26.341Z,1.75
2024-02-03T22:26:55.338Z,1.80
2024-02-03T22:29:29.069Z,1.20
2024-02-03T22:31:58.589Z,1.67
2024-02-03T22:34:26.248Z,1.27
2024-02-03T22:36:53.549Z,0.93
2024-02-03T22:39:20.656Z,1.65
2024-02-03T22:41:47.721Z,1.33
2024-02-03T22:44:14.638Z,1.33
2024-02-03T22:46:41.553Z,1.30
2024-02-03T22:49:08.516Z,1.63
2024-02-03T22:51:35.609Z,1.33
2024-02-03T22:54:02.519Z,1.85
2024-02-03T22:56:29.392Z,0.80
2024-02-03T22:58:56.386Z,1.27
2024-02-03T23:01:23.568Z,1.27
2024-02-03T23:03:50.789Z,1.20
2024-02-03T23:06:17.844Z,1.13
2024-02-03T23:08:46.125Z,1.00
2024-02-03T23:11:13.493Z,1.58
2024-02-03T23:13:40.502Z,0.85
2024-02-03T23:16:07.683Z,0.77
2024-02-03T23:18:34.957Z,1.25
2024-02-03T23:21:05.182Z,1.15
2024-02-03T23:23:32.277Z,0.95
2024-02-03T23:25:59.222Z,1.63
2024-02-03T23:28:26.195Z,1.27
2024-02-03T23:30:53.334Z,1.50
2024-02-03T23:33:20.623Z,0.73
2024-02-03T23:35:48.681Z,1.63
2024-02-03T23:38:15.800Z,0.98
2024-02-03T23:40:42.922Z,1.58
2024-02-03T23:43:10.097Z,1.75
2024-02-03T23:45:37.444Z,0.88
2024-02-03T23:48:04.913Z,2.20
2024-02-03T23:50:32.129Z,1.40
2024-02-03T23:52:59.181Z,1.50
2024-02-03T23:55:26.138Z,0.65
2024-02-03T23:57:53.168Z,1.98
